Summertime — XPE2741 — position and weather

sailwx.info

Track history (hours):
 
Tides and Currents Weather Stations Pressure Air Temp Water Temp Dewpoint Dewpoint Depression Visibility Wind Speed Wind Dir Waves Ship Positions

Summertime

Last reported at 2015-Aug-21 13:24 UTC. Time now 2015-Sep-03 19:13 UTC.
Position N 54°43' E 010°07'.
Warning: this ship's position is 13 days out of date.

Length 15 m.

Type: Sailing vessel. MMSI: 219014761.

Date/timePositionNaut miles runAvg speedWind from/ knotsBaromVisibWave heightAir tempDewpointWater temp
2015-Aug-21 13:24N 54°43' E 010°07'5 6.2
2015-Aug-21 12:33N 54°38' E 010°11'7 6.9
2015-Aug-21 11:33N 54°31' E 010°14'7 6.9
2015-Aug-21 10:34N 54°25' E 010°12'3 3.0
2015-Aug-21 09:33N 54°22' E 010°09'3 2.7
2015-Aug-21 08:33N 54°22' E 010°04'5 5.2
2015-Aug-21 07:33N 54°21' E 009°55'6 5.0
2015-Aug-21 06:26N 54°21' E 009°46'25 1.9
2015-Aug-20 17:28N 54°02' E 009°18'5 5.5
2015-Aug-20 16:32N 53°58' E 009°15'5 4.8
2015-Aug-20 15:25N 53°54' E 009°09'1 0.7
2015-Aug-20 14:33N 53°53' E 009°08'5 4.8
2015-Aug-20 13:33N 53°52' E 009°01'8 7.6
2015-Aug-20 12:33N 53°51' E 008°48'7 7.0
2015-Aug-20 11:33N 53°56' E 008°40'6 6.2
2015-Aug-20 10:33N 53°59' E 008°31'12 4.7
2015-Aug-20 08:03N 54°02' E 008°11'2 3.8
2015-Aug-20 07:28N 54°02' E 008°08'4 4.2
2015-Aug-20 06:33N 54°05' E 008°03'5 4.8
2015-Aug-20 05:33N 54°08' E 007°57'3 0.2
2015-Aug-19 09:17N 54°11' E 007°54'1 1.4
2015-Aug-19 08:32N 54°10' E 007°54'6 5.8
2015-Aug-19 07:33N 54°04' E 007°51'6 5.9
2015-Aug-19 06:31N 53°59' E 007°47'5 5.3
2015-Aug-19 05:31N 53°55' E 007°41'4 3.6
2015-Aug-19 04:33N 53°53' E 007°35'61 7.5
2015-Aug-18 20:29N 53°37' E 005°57'9 8.9
2015-Aug-18 19:30N 53°34' E 005°42'9 9.1
2015-Aug-18 18:33N 53°31' E 005°29'9 8.6
2015-Aug-18 17:33N 53°29' E 005°15'8 8.3
2015-Aug-18 16:33N 53°26' E 005°02'7 7.2
2015-Aug-18 15:31N 53°20' E 004°53'32 6.3
2015-Aug-18 10:30N 52°51' E 004°32'7 7.4
2015-Aug-18 09:33N 52°44' E 004°32'8 7.8
2015-Aug-18 08:33N 52°36' E 004°31'9 8.3
2015-Aug-18 07:32N 52°28' E 004°33'1 0.0
2015-Aug-17 11:33N 52°28' E 004°34'6 5.9
2015-Aug-17 10:33N 52°26' E 004°24'8 7.3
2015-Aug-17 09:29N 52°23' E 004°13'7 7.1
2015-Aug-17 08:28N 52°20' E 004°02'79 6.0
2015-Aug-16 19:13N 51°21' E 002°36'4 5.8
2015-Aug-16 18:29N 51°18' E 002°32'4 4.5
2015-Aug-16 17:33N 51°14' E 002°32'  
Track history (hours):
 
Tides and Currents Weather Stations Pressure Air Temp Water Temp Dewpoint Dewpoint Depression Visibility Wind Speed Wind Dir Waves Ship Positions

Summertime

Last reported at 2015-Aug-21 13:24 UTC. Time now 2015-Sep-03 19:13 UTC.
Position N 54°43' E 010°07'.
Warning: this ship's position is 13 days out of date.

Length 15 m.

Type: Sailing vessel. MMSI: 219014761.

Date/timePositionNaut miles runAvg speedWind from/ knotsBaromVisibWave heightAir tempDewpointWater temp
2015-Aug-21 13:24N 54°43' E 010°07'5 6.2
2015-Aug-21 12:33N 54°38' E 010°11'7 6.9
2015-Aug-21 11:33N 54°31' E 010°14'7 6.9
2015-Aug-21 10:34N 54°25' E 010°12'3 3.0
2015-Aug-21 09:33N 54°22' E 010°09'3 2.7
2015-Aug-21 08:33N 54°22' E 010°04'5 5.2
2015-Aug-21 07:33N 54°21' E 009°55'6 5.0
2015-Aug-21 06:26N 54°21' E 009°46'25 1.9
2015-Aug-20 17:28N 54°02' E 009°18'5 5.5
2015-Aug-20 16:32N 53°58' E 009°15'5 4.8
2015-Aug-20 15:25N 53°54' E 009°09'1 0.7
2015-Aug-20 14:33N 53°53' E 009°08'5 4.8
2015-Aug-20 13:33N 53°52' E 009°01'8 7.6
2015-Aug-20 12:33N 53°51' E 008°48'7 7.0
2015-Aug-20 11:33N 53°56' E 008°40'6 6.2
2015-Aug-20 10:33N 53°59' E 008°31'12 4.7
2015-Aug-20 08:03N 54°02' E 008°11'2 3.8
2015-Aug-20 07:28N 54°02' E 008°08'4 4.2
2015-Aug-20 06:33N 54°05' E 008°03'5 4.8
2015-Aug-20 05:33N 54°08' E 007°57'3 0.2
2015-Aug-19 09:17N 54°11' E 007°54'1 1.4
2015-Aug-19 08:32N 54°10' E 007°54'6 5.8
2015-Aug-19 07:33N 54°04' E 007°51'6 5.9
2015-Aug-19 06:31N 53°59' E 007°47'5 5.3
2015-Aug-19 05:31N 53°55' E 007°41'4 3.6
2015-Aug-19 04:33N 53°53' E 007°35'61 7.5
2015-Aug-18 20:29N 53°37' E 005°57'9 8.9
2015-Aug-18 19:30N 53°34' E 005°42'9 9.1
2015-Aug-18 18:33N 53°31' E 005°29'9 8.6
2015-Aug-18 17:33N 53°29' E 005°15'8 8.3
2015-Aug-18 16:33N 53°26' E 005°02'7 7.2
2015-Aug-18 15:31N 53°20' E 004°53'32 6.3
2015-Aug-18 10:30N 52°51' E 004°32'7 7.4
2015-Aug-18 09:33N 52°44' E 004°32'8 7.8
2015-Aug-18 08:33N 52°36' E 004°31'9 8.3
2015-Aug-18 07:32N 52°28' E 004°33'1 0.0
2015-Aug-17 11:33N 52°28' E 004°34'6 5.9
2015-Aug-17 10:33N 52°26' E 004°24'8 7.3
2015-Aug-17 09:29N 52°23' E 004°13'7 7.1
2015-Aug-17 08:28N 52°20' E 004°02'79 6.0
2015-Aug-16 19:13N 51°21' E 002°36'4 5.8
2015-Aug-16 18:29N 51°18' E 002°32'4 4.5
2015-Aug-16 17:33N 51°14' E 002°32'  

Dump ship's entire track history